createdAt,value
2018-05-10T00:00:33.948Z,20.27
2018-05-10T00:01:39.730Z,20.24
2018-05-10T00:02:46.275Z,20.25
2018-05-10T00:03:51.826Z,20.26
2018-05-10T00:04:58.379Z,20.24
2018-05-10T00:06:04.160Z,20.23
2018-05-10T00:07:09.721Z,20.18
2018-05-10T00:08:15.483Z,20.11
2018-05-10T00:09:21.272Z,20.05
2018-05-10T00:10:27.052Z,20.04
2018-05-10T00:11:32.823Z,20.04
2018-05-10T00:12:38.594Z,20.06
2018-05-10T00:13:45.371Z,20.03
2018-05-10T00:14:51.149Z,20.05
2018-05-10T00:15:56.920Z,20.02
2018-05-10T00:17:02.693Z,20.01
2018-05-10T00:18:08.457Z,20.04
2018-05-10T00:19:14.231Z,20.05
2018-05-10T00:20:20.024Z,20.06
2018-05-10T00:21:25.800Z,20.06
2018-05-10T00:22:31.790Z,20.06
2018-05-10T00:23:38.335Z,20.07
2018-05-10T00:24:44.140Z,20.10
2018-05-10T00:25:49.925Z,20.18
2018-05-10T00:26:56.461Z,20.21
2018-05-10T00:28:02.005Z,20.23
2018-05-10T00:29:07.776Z,20.21
2018-05-10T00:30:14.076Z,20.21
2018-05-10T00:31:19.870Z,20.23
2018-05-10T00:32:26.403Z,20.25
2018-05-10T00:33:32.176Z,20.25
2018-05-10T00:34:38.711Z,20.20
2018-05-10T00:35:44.484Z,20.18
2018-05-10T00:36:51.027Z,20.17
2018-05-10T00:37:57.563Z,20.13
2018-05-10T00:39:03.635Z,20.12
2018-05-10T00:40:09.394Z,20.11
2018-05-10T00:41:15.179Z,20.08
2018-05-10T00:42:20.971Z,20.04
2018-05-10T00:43:26.746Z,19.97
2018-05-10T00:44:32.515Z,19.94
2018-05-10T00:45:38.279Z,19.90
2018-05-10T00:46:44.039Z,19.88
2018-05-10T00:47:50.594Z,19.89
2018-05-10T00:48:57.128Z,19.86
2018-05-10T00:50:03.059Z,19.86
2018-05-10T00:51:08.860Z,19.82
2018-05-10T00:52:15.580Z,19.78
2018-05-10T00:53:21.375Z,19.73
2018-05-10T00:54:43.935Z,19.71
2018-05-10T00:55:49.711Z,19.68
2018-05-10T00:56:55.476Z,19.66
2018-05-10T00:58:01.257Z,19.65
2018-05-10T00:59:07.239Z,19.66
2018-05-10T01:00:13.776Z,19.63
2018-05-10T01:01:19.550Z,19.61
2018-05-10T01:02:25.868Z,19.61
2018-05-10T01:03:31.683Z,19.57
2018-05-10T01:04:37.447Z,19.57
2018-05-10T01:05:43.211Z,19.54
2018-05-10T01:06:49.047Z,19.47
2018-05-10T01:07:54.819Z,19.47
2018-05-10T01:09:01.376Z,19.46
2018-05-10T01:10:07.669Z,19.40
2018-05-10T01:11:13.436Z,19.39
2018-05-10T01:12:19.449Z,19.35
2018-05-10T01:13:25.218Z,19.34
2018-05-10T01:14:31.017Z,19.31
2018-05-10T01:15:37.599Z,19.27
2018-05-10T01:16:43.389Z,19.22
2018-05-10T01:17:49.589Z,19.15
2018-05-10T01:18:55.348Z,19.14
2018-05-10T01:20:01.164Z,19.10
2018-05-10T01:21:06.943Z,19.09
2018-05-10T01:22:12.467Z,19.08
2018-05-10T01:23:18.248Z,19.09
2018-05-10T01:24:25.523Z,19.07
2018-05-10T01:25:31.316Z,19.04
2018-05-10T01:26:37.093Z,19.00
2018-05-10T01:27:42.866Z,18.96
2018-05-10T01:28:48.640Z,18.92
2018-05-10T01:29:54.408Z,18.89
2018-05-10T01:31:00.200Z,18.90
2018-05-10T01:32:06.726Z,18.89
2018-05-10T01:33:12.490Z,18.86
2018-05-10T01:34:19.032Z,18.84
2018-05-10T01:35:41.659Z,18.83
2018-05-10T01:36:47.444Z,18.77
2018-05-10T01:37:53.987Z,18.76
2018-05-10T01:39:00.077Z,18.78
2018-05-10T01:40:05.851Z,18.80
2018-05-10T01:41:11.619Z,18.79
2018-05-10T01:42:18.170Z,18.80
2018-05-10T01:43:23.935Z,18.79
2018-05-10T01:44:30.471Z,18.79
2018-05-10T01:45:36.234Z,18.77
2018-05-10T01:46:41.999Z,18.77
2018-05-10T01:47:47.789Z,18.75
2018-05-10T01:48:53.548Z,18.74
2018-05-10T01:49:59.412Z,18.73
2018-05-10T01:51:05.604Z,18.69
2018-05-10T01:52:11.399Z,18.69
2018-05-10T01:53:17.951Z,18.70
2018-05-10T01:54:24.486Z,18.69
2018-05-10T01:55:30.261Z,18.67
2018-05-10T01:56:36.799Z,18.67
2018-05-10T01:57:42.568Z,18.67
2018-05-10T01:58:49.130Z,18.61
2018-05-10T01:59:55.655Z,18.57
2018-05-10T02:01:02.269Z,18.56
2018-05-10T02:02:08.032Z,18.54
2018-05-10T02:03:13.802Z,18.54
2018-05-10T02:04:21.102Z,18.51
2018-05-10T02:05:27.642Z,18.48
2018-05-10T02:06:33.399Z,18.49
2018-05-10T02:07:39.162Z,18.46
2018-05-10T02:08:44.938Z,18.45
2018-05-10T02:09:50.709Z,18.43
2018-05-10T02:10:56.484Z,18.44
2018-05-10T02:12:02.793Z,18.41
2018-05-10T02:13:08.568Z,18.35
2018-05-10T02:14:15.106Z,18.31
2018-05-10T02:15:20.892Z,18.27
2018-05-10T02:16:26.662Z,18.23
2018-05-10T02:17:32.427Z,18.23
2018-05-10T02:18:38.186Z,18.24
2018-05-10T02:19:43.951Z,18.21
2018-05-10T02:20:49.749Z,18.15
2018-05-10T02:21:55.526Z,18.11
2018-05-10T02:23:02.051Z,18.08
2018-05-10T02:24:07.825Z,18.06
2018-05-10T02:25:13.581Z,18.05
2018-05-10T02:26:19.370Z,18.02
2018-05-10T02:27:25.140Z,18.01
2018-05-10T02:28:30.909Z,18.00
2018-05-10T02:29:36.754Z,18.02
2018-05-10T02:30:42.656Z,17.98
2018-05-10T02:31:48.449Z,17.96
2018-05-10T02:32:54.206Z,17.93
2018-05-10T02:33:59.984Z,17.93
2018-05-10T02:35:05.513Z,17.88
2018-05-10T02:36:11.281Z,17.86
2018-05-10T02:37:17.071Z,17.83
2018-05-10T02:38:22.841Z,17.80
2018-05-10T02:39:28.611Z,17.80
2018-05-10T02:40:35.141Z,17.79
2018-05-10T02:41:40.901Z,17.75
2018-05-10T02:42:46.689Z,17.74
2018-05-10T02:43:52.447Z,17.71
2018-05-10T02:44:58.245Z,17.71
2018-05-10T02:46:03.951Z,17.68
2018-05-10T02:47:09.731Z,17.68
2018-05-10T02:48:16.285Z,17.64
2018-05-10T02:49:22.838Z,17.63
2018-05-10T02:50:29.373Z,17.61
2018-05-10T02:51:35.136Z,17.61
2018-05-10T02:52:41.659Z,17.65
2018-05-10T02:53:47.439Z,17.63
2018-05-10T02:54:53.207Z,17.60
2018-05-10T02:55:58.962Z,17.60
2018-05-10T02:57:04.239Z,17.62
2018-05-10T02:58:10.005Z,17.61
2018-05-10T02:59:16.566Z,17.62
2018-05-10T03:00:23.087Z,17.63
2018-05-10T03:01:28.855Z,17.63
2018-05-10T03:02:35.392Z,17.59
2018-05-10T03:03:41.167Z,17.56
2018-05-10T03:04:47.727Z,17.54
2018-05-10T03:05:54.243Z,17.51
2018-05-10T03:07:00.006Z,17.50
2018-05-10T03:08:05.962Z,17.48
2018-05-10T03:09:12.247Z,17.43
2018-05-10T03:10:18.035Z,17.39
2018-05-10T03:11:23.801Z,17.39
2018-05-10T03:12:29.677Z,17.38
2018-05-10T03:13:35.434Z,17.38
2018-05-10T03:14:41.203Z,17.35
2018-05-10T03:15:46.996Z,17.32
2018-05-10T03:16:52.451Z,17.31
2018-05-10T03:17:58.211Z,17.31
2018-05-10T03:19:03.963Z,17.30
2018-05-10T03:20:09.739Z,17.29
2018-05-10T03:21:16.292Z,17.28
2018-05-10T03:22:22.847Z,17.21
2018-05-10T03:23:28.604Z,17.17
2018-05-10T03:24:35.126Z,17.15
2018-05-10T03:25:40.662Z,17.17
2018-05-10T03:26:46.447Z,17.18
2018-05-10T03:27:52.975Z,17.17
2018-05-10T03:28:58.413Z,17.14
2018-05-10T03:30:03.966Z,17.10
2018-05-10T03:31:10.635Z,17.08
2018-05-10T03:32:17.168Z,17.05
2018-05-10T03:33:22.963Z,16.99
2018-05-10T03:34:30.030Z,16.94
2018-05-10T03:35:35.791Z,16.89
2018-05-10T03:36:40.906Z,16.89
2018-05-10T03:37:46.705Z,16.89
2018-05-10T03:38:53.970Z,16.88
2018-05-10T03:39:59.736Z,16.84
2018-05-10T03:41:06.275Z,16.83
2018-05-10T03:42:12.044Z,16.84
2018-05-10T03:43:18.605Z,16.84
2018-05-10T03:44:24.899Z,16.84
2018-05-10T03:45:30.666Z,16.84
2018-05-10T03:46:36.771Z,16.85
2018-05-10T03:47:42.534Z,16.88
2018-05-10T03:48:48.327Z,16.84
2018-05-10T03:49:54.864Z,16.83
2018-05-10T03:51:00.619Z,16.86
2018-05-10T03:52:07.155Z,16.89
2018-05-10T03:53:12.939Z,16.91
2018-05-10T03:54:18.722Z,16.96
2018-05-10T03:55:24.493Z,16.97
2018-05-10T03:56:30.239Z,17.00
2018-05-10T03:57:36.015Z,17.03
2018-05-10T03:58:41.779Z,17.06
2018-05-10T03:59:47.612Z,17.08
2018-05-10T04:00:53.367Z,17.10
2018-05-10T04:01:59.127Z,17.14
2018-05-10T04:05:23.543Z,17.17
2018-05-10T04:06:47.070Z,17.20
2018-05-10T04:08:09.843Z,17.21
2018-05-10T04:09:32.458Z,17.25
2018-05-10T04:10:55.157Z,17.29
2018-05-10T04:12:00.926Z,17.31
2018-05-10T04:13:06.692Z,17.31
2018-05-10T04:14:12.456Z,17.34
2018-05-10T04:15:18.982Z,17.33
2018-05-10T04:16:24.887Z,17.31
2018-05-10T04:17:30.643Z,17.31
2018-05-10T04:18:36.419Z,17.31
2018-05-10T04:19:42.236Z,17.27
2018-05-10T04:20:48.007Z,17.27
2018-05-10T04:21:53.794Z,17.28
2018-05-10T04:22:59.579Z,17.29
2018-05-10T04:24:05.417Z,17.32
2018-05-10T04:25:11.240Z,17.33
2018-05-10T04:26:16.868Z,17.34
2018-05-10T04:27:22.701Z,17.32
2018-05-10T04:28:28.513Z,17.34
2018-05-10T04:29:34.284Z,17.36
2018-05-10T04:30:40.800Z,17.39
2018-05-10T04:31:46.567Z,17.43
2018-05-10T04:32:53.124Z,17.39
2018-05-10T04:33:59.660Z,17.40
2018-05-10T04:35:05.427Z,17.36
2018-05-10T04:36:11.726Z,17.37
2018-05-10T04:37:17.495Z,17.38
2018-05-10T04:38:23.301Z,17.37
2018-05-10T04:39:29.136Z,17.41
2018-05-10T04:40:34.895Z,17.40
2018-05-10T04:41:40.651Z,17.38
2018-05-10T04:42:46.419Z,17.37
2018-05-10T04:43:52.973Z,17.35
2018-05-10T04:44:58.735Z,17.31
2018-05-10T04:46:05.283Z,17.31
2018-05-10T04:47:11.043Z,17.28
2018-05-10T04:48:17.584Z,17.28
2018-05-10T04:49:24.883Z,17.25
2018-05-10T04:50:31.424Z,17.21
2018-05-10T04:51:37.967Z,17.19
2018-05-10T04:52:43.537Z,17.12
2018-05-10T04:53:50.055Z,17.11
2018-05-10T04:54:55.842Z,17.02
2018-05-10T04:56:02.374Z,16.99
2018-05-10T04:57:08.135Z,17.00
2018-05-10T04:58:14.661Z,17.03
2018-05-10T04:59:20.436Z,17.07
2018-05-10T05:00:26.997Z,17.11
2018-05-10T05:01:33.534Z,17.13
2018-05-10T05:02:39.297Z,17.11
2018-05-10T05:03:45.832Z,17.13
2018-05-10T05:04:51.592Z,17.15
2018-05-10T05:05:58.141Z,17.19
2018-05-10T05:07:03.895Z,17.23
2018-05-10T05:08:10.435Z,17.23
2018-05-10T05:09:16.188Z,17.27
2018-05-10T05:10:21.943Z,17.25
2018-05-10T05:11:28.495Z,17.24
2018-05-10T05:12:34.256Z,17.23
2018-05-10T05:13:40.787Z,17.23
2018-05-10T05:14:46.550Z,17.22
2018-05-10T05:15:53.079Z,17.24
2018-05-10T05:16:58.871Z,17.26
2018-05-10T05:18:04.626Z,17.29
2018-05-10T05:19:10.151Z,17.30
2018-05-10T05:20:15.932Z,17.29
2018-05-10T05:21:21.695Z,17.32
2018-05-10T05:22:27.477Z,17.30
2018-05-10T05:23:33.243Z,17.34
2018-05-10T05:24:38.999Z,17.37
2018-05-10T05:25:44.767Z,17.42
2018-05-10T05:26:50.618Z,17.49
2018-05-10T05:27:56.541Z,17.53
2018-05-10T05:29:02.296Z,17.59
2018-05-10T05:30:08.075Z,17.60
2018-05-10T05:31:13.839Z,17.63
2018-05-10T05:32:19.613Z,17.65
2018-05-10T05:33:25.398Z,17.68
2018-05-10T05:34:31.166Z,17.71
2018-05-10T05:35:36.976Z,17.78
2018-05-10T05:36:42.928Z,17.82
2018-05-10T05:37:48.909Z,17.88
2018-05-10T05:38:54.699Z,17.92
2018-05-10T05:40:01.280Z,17.93
2018-05-10T05:41:07.063Z,17.95
2018-05-10T05:42:13.101Z,17.97
2018-05-10T05:43:18.925Z,18.00
2018-05-10T05:44:25.651Z,18.03
2018-05-10T05:45:32.188Z,18.06
2018-05-10T05:46:37.950Z,18.04
2018-05-10T05:47:43.705Z,18.08
2018-05-10T05:48:50.339Z,18.09
2018-05-10T05:49:56.119Z,18.13
2018-05-10T05:51:01.967Z,18.18
2018-05-10T05:52:07.743Z,18.21
2018-05-10T05:53:13.529Z,18.26
2018-05-10T05:54:19.292Z,18.31
2018-05-10T05:55:25.101Z,18.34
2018-05-10T05:56:31.068Z,18.35
2018-05-10T05:57:37.592Z,18.38
2018-05-10T05:58:44.869Z,18.45
2018-05-10T05:59:50.635Z,18.49
2018-05-10T06:00:57.238Z,18.47
2018-05-10T06:02:03.964Z,18.54
2018-05-10T06:03:10.501Z,18.60
2018-05-10T06:04:16.392Z,18.65
2018-05-10T06:05:22.159Z,18.70
2018-05-10T06:06:27.959Z,18.78
2018-05-10T06:07:34.501Z,18.84
2018-05-10T06:08:40.310Z,18.92
2018-05-10T06:09:46.274Z,18.95
2018-05-10T06:10:52.041Z,18.98
2018-05-10T06:11:58.598Z,19.02
2018-05-10T06:13:05.133Z,19.10
2018-05-10T06:14:10.903Z,19.11
2018-05-10T06:15:17.440Z,19.16
2018-05-10T06:16:23.213Z,19.30
2018-05-10T06:17:29.788Z,19.44
2018-05-10T06:18:35.561Z,19.70
2018-05-10T06:19:41.324Z,20.08
2018-05-10T06:20:47.101Z,20.53
2018-05-10T06:21:52.867Z,21.01
2018-05-10T06:22:58.643Z,21.38
2018-05-10T06:24:04.206Z,21.79
2018-05-10T06:25:11.047Z,22.30
2018-05-10T06:26:16.759Z,22.79
2018-05-10T06:27:22.523Z,23.22
2018-05-10T06:28:28.320Z,23.61
2018-05-10T06:29:35.092Z,24.08
2018-05-10T06:30:40.856Z,24.60
2018-05-10T06:31:46.631Z,25.01
2018-05-10T06:32:52.408Z,25.50
2018-05-10T06:33:59.000Z,25.86
2018-05-10T06:35:05.718Z,26.22
2018-05-10T06:36:12.820Z,26.60
2018-05-10T06:37:18.604Z,26.94
2018-05-10T06:38:24.378Z,27.32
2018-05-10T06:39:30.937Z,27.67
2018-05-10T06:40:37.322Z,27.93
2018-05-10T06:41:43.168Z,28.34
2018-05-10T06:42:48.944Z,28.75
2018-05-10T06:43:54.735Z,29.21
2018-05-10T06:45:00.549Z,29.54
2018-05-10T06:46:06.693Z,29.88
2018-05-10T06:47:13.252Z,30.09
2018-05-10T06:48:20.547Z,30.33
2018-05-10T06:49:26.880Z,30.64
2018-05-10T06:50:32.676Z,31.10
2018-05-10T06:51:38.439Z,31.36
2018-05-10T06:52:44.209Z,31.71
2018-05-10T06:53:49.986Z,31.97
2018-05-10T06:54:56.280Z,32.03
2018-05-10T06:56:02.064Z,31.97
2018-05-10T06:57:08.610Z,32.00
2018-05-10T06:58:14.370Z,32.18
2018-05-10T06:59:20.908Z,32.30
2018-05-10T07:00:26.679Z,32.28
2018-05-10T07:01:33.243Z,32.26
2018-05-10T07:02:39.781Z,32.25
2018-05-10T07:03:45.555Z,32.39
2018-05-10T07:04:50.996Z,32.58
2018-05-10T07:05:56.767Z,32.67
2018-05-10T07:07:02.645Z,32.83
2018-05-10T07:08:09.198Z,33.07
2018-05-10T07:09:16.430Z,33.38
2018-05-10T07:10:23.158Z,33.75
2018-05-10T07:11:29.696Z,33.98
2018-05-10T07:12:36.270Z,34.11
2018-05-10T07:13:42.804Z,34.25
2018-05-10T07:14:48.583Z,34.31
2018-05-10T07:15:55.111Z,34.52
2018-05-10T07:17:00.882Z,34.37
2018-05-10T07:18:07.452Z,34.39
2018-05-10T07:19:13.756Z,34.27
2018-05-10T07:20:19.524Z,34.19
2018-05-10T07:21:26.168Z,33.77
2018-05-10T07:22:31.948Z,33.52
2018-05-10T07:23:38.574Z,33.44
2018-05-10T07:24:44.589Z,33.42
2018-05-10T07:25:50.395Z,33.37
2018-05-10T07:26:56.949Z,33.32
2018-05-10T07:28:02.719Z,33.29
2018-05-10T07:29:08.688Z,33.20
2018-05-10T07:30:14.511Z,32.79
2018-05-10T07:31:20.339Z,32.55
2018-05-10T07:32:26.873Z,32.30
2018-05-10T07:33:32.652Z,32.09
2018-05-10T07:34:39.833Z,32.11
2018-05-10T07:35:45.880Z,32.06
2018-05-10T07:36:51.672Z,32.28
2018-05-10T07:37:58.168Z,32.44
2018-05-10T07:39:03.820Z,32.70
2018-05-10T07:40:09.785Z,33.03
2018-05-10T07:41:15.687Z,33.29
2018-05-10T07:42:22.378Z,33.43
2018-05-10T07:43:28.265Z,33.67
2018-05-10T07:44:34.365Z,33.89
2018-05-10T07:45:40.520Z,33.90
2018-05-10T07:46:46.472Z,34.11
2018-05-10T07:47:52.264Z,34.51
2018-05-10T07:48:58.041Z,34.90
2018-05-10T07:50:03.811Z,35.28
2018-05-10T07:51:09.608Z,35.23
2018-05-10T07:52:16.403Z,35.13
2018-05-10T07:53:22.348Z,34.91
2018-05-10T07:54:28.458Z,34.94
2018-05-10T07:55:34.286Z,35.03
2018-05-10T07:56:40.095Z,35.09
2018-05-10T07:57:45.953Z,35.48
2018-05-10T07:58:51.757Z,35.76
2018-05-10T07:59:58.290Z,35.97
2018-05-10T08:01:04.972Z,36.09
2018-05-10T08:02:11.588Z,36.14
2018-05-10T08:03:17.559Z,36.29
2018-05-10T08:04:24.621Z,36.11
2018-05-10T08:05:31.415Z,36.20
2018-05-10T08:06:37.873Z,36.08
2018-05-10T08:07:43.901Z,36.11
2018-05-10T08:08:49.832Z,35.99
2018-05-10T08:09:56.055Z,36.12
2018-05-10T08:11:02.823Z,36.29
2018-05-10T08:12:10.345Z,36.55
2018-05-10T08:13:17.126Z,36.86
2018-05-10T08:14:23.710Z,37.24
2018-05-10T08:15:29.778Z,37.62
2018-05-10T08:16:35.596Z,38.12
2018-05-10T08:17:41.399Z,38.27
2018-05-10T08:18:47.192Z,38.45
2018-05-10T08:19:52.920Z,38.77
2018-05-10T08:20:58.679Z,38.99
2018-05-10T08:22:06.111Z,38.99
2018-05-10T08:23:14.767Z,38.96
2018-05-10T08:24:22.174Z,39.27
2018-05-10T08:25:28.985Z,39.68
2018-05-10T08:26:34.670Z,39.55
2018-05-10T08:27:48.494Z,39.73
2018-05-10T08:28:56.467Z,39.97
2018-05-10T08:30:02.318Z,40.09
2018-05-10T08:31:08.028Z,39.90
2018-05-10T08:32:14.249Z,40.05
2018-05-10T08:33:19.945Z,39.97
2018-05-10T08:34:27.231Z,40.08
2018-05-10T08:35:32.827Z,40.70
2018-05-10T08:36:38.397Z,40.50
2018-05-10T08:37:44.453Z,40.55
2018-05-10T08:38:51.254Z,40.66
2018-05-10T08:39:56.962Z,40.94
2018-05-10T08:41:02.593Z,40.75
2018-05-10T08:42:09.331Z,40.71
2018-05-10T08:43:14.710Z,40.05
2018-05-10T08:44:20.638Z,39.71
2018-05-10T08:45:27.803Z,39.56
2018-05-10T08:46:33.538Z,39.49
2018-05-10T08:47:39.192Z,39.64
2018-05-10T08:48:45.046Z,39.49
2018-05-10T08:49:50.982Z,39.42
2018-05-10T08:50:56.928Z,39.18
2018-05-10T08:52:02.966Z,39.25
2018-05-10T08:53:08.814Z,39.02
2018-05-10T08:54:16.584Z,38.35
2018-05-10T08:55:23.200Z,37.63
2018-05-10T08:56:29.114Z,37.50
2018-05-10T08:57:34.837Z,36.88
2018-05-10T08:58:40.419Z,36.54
2018-05-10T08:59:46.949Z,36.49
2018-05-10T09:00:52.571Z,36.32
2018-05-10T09:01:58.333Z,36.13
2018-05-10T09:03:05.711Z,36.05
2018-05-10T09:04:11.969Z,35.67
2018-05-10T09:05:17.604Z,35.51
2018-05-10T09:06:23.656Z,35.43
2018-05-10T09:07:29.398Z,35.51
2018-05-10T09:08:37.272Z,35.34
2018-05-10T09:09:43.232Z,35.40
2018-05-10T09:10:49.282Z,35.04
2018-05-10T09:11:55.330Z,35.07
2018-05-10T09:13:01.210Z,34.81
2018-05-10T09:14:06.665Z,34.50
2018-05-10T09:15:12.701Z,34.46
2018-05-10T09:16:18.679Z,34.60
2018-05-10T09:17:25.840Z,34.22
2018-05-10T09:18:32.742Z,34.11
2018-05-10T09:19:38.884Z,34.28
2018-05-10T09:20:45.662Z,34.41
2018-05-10T09:21:51.427Z,34.65
2018-05-10T09:22:57.246Z,34.66
2018-05-10T09:24:03.064Z,34.70
2018-05-10T09:25:09.956Z,34.93
2018-05-10T09:26:15.759Z,35.35
2018-05-10T09:27:22.391Z,35.54
2018-05-10T09:28:28.179Z,35.79
2018-05-10T09:29:34.776Z,36.24
2018-05-10T09:30:40.701Z,36.79
2018-05-10T09:31:46.944Z,36.94
2018-05-10T09:32:52.879Z,36.67
2018-05-10T09:33:59.596Z,36.40
2018-05-10T09:35:05.578Z,36.56
2018-05-10T09:36:12.292Z,36.66
2018-05-10T09:37:18.116Z,36.93
2018-05-10T09:38:25.454Z,37.35
2018-05-10T09:39:31.213Z,37.56
2018-05-10T09:40:37.657Z,37.81
2018-05-10T09:41:43.484Z,38.22
2018-05-10T09:42:49.186Z,38.23
2018-05-10T09:43:54.914Z,37.86
2018-05-10T09:45:00.951Z,37.58
2018-05-10T09:46:06.854Z,37.60
2018-05-10T09:47:13.440Z,37.77
2018-05-10T09:48:19.088Z,37.43
2018-05-10T09:49:24.821Z,37.33
2018-05-10T09:50:30.529Z,37.22
2018-05-10T09:51:37.121Z,37.41
2018-05-10T09:52:43.099Z,37.28
2018-05-10T09:53:49.057Z,37.52
2018-05-10T09:54:54.864Z,37.50
2018-05-10T09:56:00.687Z,37.31
2018-05-10T09:57:06.492Z,37.54
2018-05-10T09:58:12.820Z,38.01
2018-05-10T09:59:18.493Z,37.70
2018-05-10T10:00:29.775Z,37.65
2018-05-10T10:01:36.160Z,37.45
2018-05-10T10:02:41.743Z,37.31
2018-05-10T10:03:47.392Z,37.31
2018-05-10T10:04:52.773Z,37.55
2018-05-10T10:05:58.456Z,37.38
2018-05-10T10:07:04.044Z,37.21
2018-05-10T10:08:10.605Z,36.88
2018-05-10T10:09:18.044Z,36.17
2018-05-10T10:10:23.620Z,36.11
2018-05-10T10:11:29.506Z,35.97
2018-05-10T10:12:35.416Z,36.30
2018-05-10T10:13:41.337Z,36.79
2018-05-10T10:14:47.124Z,37.12
2018-05-10T10:15:53.653Z,37.38
2018-05-10T10:16:59.243Z,36.96
2018-05-10T10:18:05.064Z,36.56
2018-05-10T10:19:11.113Z,36.46
2018-05-10T10:20:16.969Z,36.45
2018-05-10T10:21:23.497Z,36.82
2018-05-10T10:22:31.443Z,36.81
2018-05-10T10:23:37.793Z,36.70
2018-05-10T10:24:43.596Z,36.39
2018-05-10T10:25:50.144Z,36.15
2018-05-10T10:26:56.142Z,35.14
2018-05-10T10:28:01.962Z,34.82
2018-05-10T10:29:09.049Z,34.72
2018-05-10T10:30:15.638Z,34.50
2018-05-10T10:31:21.978Z,34.41
2018-05-10T10:32:28.209Z,34.53
2018-05-10T10:33:36.359Z,34.62
2018-05-10T10:34:42.387Z,34.63
2018-05-10T10:35:48.423Z,34.35
2018-05-10T10:36:54.468Z,34.31
2018-05-10T10:38:00.218Z,34.47
2018-05-10T10:39:05.216Z,34.28
2018-05-10T10:40:11.831Z,33.84
2018-05-10T10:41:18.862Z,33.20
2018-05-10T10:42:24.775Z,33.08
2018-05-10T10:43:30.821Z,33.01
2018-05-10T10:44:36.892Z,32.93
2018-05-10T10:45:42.953Z,32.98
2018-05-10T10:46:48.900Z,32.79
2018-05-10T10:47:54.848Z,32.81
2018-05-10T10:49:00.639Z,32.88
2018-05-10T10:50:07.367Z,32.90
2018-05-10T10:51:14.115Z,32.68
2018-05-10T10:52:20.155Z,32.73
2018-05-10T10:54:43.265Z,32.54
2018-05-10T10:55:49.326Z,32.42
2018-05-10T10:56:56.144Z,32.44
2018-05-10T10:58:02.182Z,32.33
2018-05-10T10:59:08.339Z,32.12
2018-05-10T11:00:15.337Z,32.20
2018-05-10T11:01:23.073Z,32.14
2018-05-10T11:02:28.857Z,31.93
2018-05-10T11:03:36.009Z,31.77
2018-05-10T11:04:42.035Z,31.62
2018-05-10T11:05:48.087Z,31.70
2018-05-10T11:06:55.087Z,31.64
2018-05-10T11:08:01.127Z,31.51
2018-05-10T11:09:06.992Z,31.48
2018-05-10T11:10:13.220Z,31.43
2018-05-10T11:11:19.168Z,31.47
2018-05-10T11:12:26.260Z,30.99
2018-05-10T11:13:32.841Z,30.73
2018-05-10T11:14:38.749Z,30.60
2018-05-10T11:15:44.613Z,30.52
2018-05-10T11:16:50.523Z,30.40
2018-05-10T11:17:57.052Z,30.37
2018-05-10T11:19:02.939Z,30.40
2018-05-10T11:20:08.982Z,30.45
2018-05-10T11:21:15.555Z,30.42
2018-05-10T11:22:21.367Z,30.47
2018-05-10T11:23:28.185Z,30.28
2018-05-10T11:24:34.989Z,30.21
2018-05-10T11:25:42.240Z,30.23
2018-05-10T11:26:48.451Z,30.30
2018-05-10T11:27:54.590Z,30.17
2018-05-10T11:29:01.263Z,29.95
2018-05-10T11:30:07.211Z,30.03
2018-05-10T11:31:13.263Z,30.15
2018-05-10T11:32:19.108Z,30.00
2018-05-10T11:33:25.022Z,29.87
2018-05-10T11:34:31.771Z,29.89
2018-05-10T11:35:38.648Z,30.02
2018-05-10T11:36:45.651Z,30.19
2018-05-10T11:37:51.500Z,30.11
2018-05-10T11:38:57.289Z,30.21
2018-05-10T11:40:06.263Z,30.32
2018-05-10T11:41:12.406Z,30.10
2018-05-10T11:42:18.271Z,30.10
2018-05-10T11:43:24.207Z,30.17
2018-05-10T11:44:30.458Z,30.11
2018-05-10T11:45:38.086Z,30.01
2018-05-10T11:46:44.593Z,30.04
2018-05-10T11:47:50.744Z,30.05
2018-05-10T11:48:57.608Z,30.20
2018-05-10T11:50:04.072Z,30.23
2018-05-10T11:51:10.218Z,30.25
2018-05-10T11:52:16.237Z,30.34
2018-05-10T11:53:22.354Z,30.31
2018-05-10T11:54:28.371Z,30.35
2018-05-10T11:55:34.531Z,30.49
2018-05-10T11:56:40.647Z,30.66
2018-05-10T11:57:46.820Z,30.76
2018-05-10T11:58:52.865Z,30.91
2018-05-10T11:59:59.161Z,31.00
2018-05-10T12:01:05.376Z,31.06
2018-05-10T12:02:11.419Z,31.04
2018-05-10T12:03:17.466Z,31.06
2018-05-10T12:04:24.358Z,31.12
2018-05-10T12:05:30.383Z,31.04
2018-05-10T12:06:37.100Z,31.02
2018-05-10T12:07:43.168Z,31.01
2018-05-10T12:08:49.123Z,30.89
2018-05-10T12:09:55.243Z,30.72
2018-05-10T12:11:01.573Z,30.65
2018-05-10T12:12:07.796Z,30.44
2018-05-10T12:13:13.723Z,30.29
2018-05-10T12:14:21.128Z,30.31
2018-05-10T12:15:27.225Z,30.29
2018-05-10T12:16:34.685Z,30.34
2018-05-10T12:17:41.212Z,30.32
2018-05-10T12:18:47.982Z,30.23
2018-05-10T12:19:54.137Z,30.23
2018-05-10T12:21:00.183Z,30.38
2018-05-10T12:22:06.329Z,30.36
2018-05-10T12:23:13.776Z,30.52
2018-05-10T12:24:20.385Z,30.44
2018-05-10T12:25:26.691Z,30.33
2018-05-10T12:26:32.879Z,29.93
2018-05-10T12:27:38.817Z,29.97
2018-05-10T12:28:46.696Z,29.84
2018-05-10T12:29:53.583Z,29.79
2018-05-10T12:30:59.570Z,29.78
2018-05-10T12:32:05.721Z,29.69
2018-05-10T12:33:11.831Z,29.63
2018-05-10T12:34:17.882Z,29.54
2018-05-10T12:35:23.862Z,29.49
2018-05-10T12:36:29.871Z,29.51
2018-05-10T12:37:35.811Z,29.51
2018-05-10T12:38:42.689Z,29.37
2018-05-10T12:39:48.921Z,29.47
2018-05-10T12:40:56.131Z,29.54
2018-05-10T12:42:02.926Z,29.64
2018-05-10T12:43:08.930Z,29.65
2018-05-10T12:44:14.723Z,29.70
2018-05-10T12:45:20.652Z,29.82
2018-05-10T12:46:26.793Z,29.59
2018-05-10T12:47:33.366Z,29.46
2018-05-10T12:48:39.206Z,29.44
2018-05-10T12:49:45.526Z,29.48
2018-05-10T12:50:51.608Z,29.58
2018-05-10T12:51:57.331Z,29.73
2018-05-10T12:53:03.618Z,29.82
2018-05-10T12:54:09.372Z,29.78
2018-05-10T12:55:15.254Z,29.64
2018-05-10T12:56:21.185Z,29.41
2018-05-10T12:57:27.097Z,29.20
2018-05-10T12:58:33.087Z,29.20
2018-05-10T12:59:39.729Z,29.28
2018-05-10T13:00:45.484Z,29.15
2018-05-10T13:01:52.162Z,29.17
2018-05-10T13:02:58.048Z,29.16
2018-05-10T13:04:04.091Z,29.12
2018-05-10T13:05:10.115Z,29.14
2018-05-10T13:06:15.922Z,29.12
2018-05-10T13:07:22.387Z,29.19
2018-05-10T13:08:28.262Z,29.32
2018-05-10T13:09:34.358Z,29.39
2018-05-10T13:10:40.241Z,29.42
2018-05-10T13:11:48.101Z,29.44
2018-05-10T13:12:55.178Z,29.39
2018-05-10T13:14:01.455Z,29.41
2018-05-10T13:15:07.607Z,29.54
2018-05-10T13:16:13.794Z,29.52
2018-05-10T13:17:20.011Z,29.59
2018-05-10T13:18:26.813Z,29.74
2018-05-10T13:19:33.671Z,29.93
2018-05-10T13:20:39.828Z,30.11
2018-05-10T13:21:45.884Z,30.29
2018-05-10T13:22:51.909Z,30.42
2018-05-10T13:23:57.683Z,30.58
2018-05-10T13:25:03.644Z,30.75
2018-05-10T13:26:08.935Z,30.92
2018-05-10T13:27:14.712Z,31.02
2018-05-10T13:28:20.706Z,30.82
2018-05-10T13:29:26.484Z,30.72
2018-05-10T13:30:32.246Z,30.71
2018-05-10T13:31:39.511Z,30.77
2018-05-10T13:32:45.302Z,30.88
2018-05-10T13:33:51.072Z,30.99
2018-05-10T13:34:56.871Z,31.14
2018-05-10T13:36:03.404Z,31.19
2018-05-10T13:37:09.170Z,31.16
2018-05-10T13:38:14.952Z,31.23
2018-05-10T13:39:21.649Z,31.32
2018-05-10T13:40:27.499Z,31.40
2018-05-10T13:41:33.267Z,31.48
2018-05-10T13:42:40.045Z,31.50
2018-05-10T13:44:45.741Z,31.27
2018-05-10T13:45:51.531Z,31.26
2018-05-10T13:46:58.216Z,31.26
2018-05-10T13:48:04.056Z,31.32
2018-05-10T13:49:09.967Z,31.36
2018-05-10T13:50:16.495Z,31.43
2018-05-10T13:51:22.294Z,31.43
2018-05-10T13:52:28.133Z,31.23
2018-05-10T13:53:34.417Z,31.04
2018-05-10T13:54:40.195Z,30.84
2018-05-10T13:55:46.072Z,30.59
2018-05-10T13:56:51.849Z,30.43
2018-05-10T13:57:57.608Z,30.38
2018-05-10T13:59:03.462Z,30.24
2018-05-10T14:00:09.421Z,30.12
2018-05-10T14:01:15.185Z,30.05
2018-05-10T14:02:22.302Z,29.99
2018-05-10T14:03:28.255Z,29.87
2018-05-10T14:04:34.090Z,29.74
2018-05-10T14:05:40.766Z,29.68
2018-05-10T14:06:46.515Z,29.62
2018-05-10T14:07:52.108Z,29.50
2018-05-10T14:08:58.789Z,29.48
2018-05-10T14:10:04.673Z,29.47
2018-05-10T14:11:11.260Z,29.41
2018-05-10T14:12:18.035Z,29.45
2018-05-10T14:13:23.833Z,29.50
2018-05-10T14:14:30.389Z,29.44
2018-05-10T14:15:36.244Z,29.36
2018-05-10T14:16:42.076Z,29.40
2018-05-10T14:17:48.657Z,29.44